Terminal Aerodrome Forecast
Issued by NWS

Current Version | Previous Version | Text Only | Print | Product List | Glossary Off
Versions: 1 2 3 4 5 6 7 8 9 10 11 12 13 14 15 16 17

000
FTUS41 KILN 252300
TAFLUK
TAF
KLUK 252330Z 2600/2624 12004KT P6SM FEW070
     FM260400 00000KT 4SM BR SKC
     FM260800 14004KT 1SM BR SCT001
      TEMPO 2608/2612 1/4SM FG VV001
     FM261300 00000KT 2SM BR SKC
     FM261500 17004KT P6SM SCT030 SCT250
     FM262300 23003KT P6SM SCT250=

USA.gov is the U.S. government's official web portal to all federal, state and local government web resources and services.